Time;durP1;ratioP1;P1;durP2;ratioP2;P2;SDS_P1;SDS_P2;PMS_P1;PMS_P2;Temp;Humidity;BMP_temperature;BMP_pressure;BME280_temperature;BME280_humidity;BME280_pressure;Samples;Min_cycle;Max_cycle;Signal;HPM_P1;HPM_P2
2022/10/11 00:00:01;;;;;;;9.83;3.40;;;20.80;70.20;;;-142.21;96.44;112049.66;5112388;28;20456;-69
2022/10/11 00:02:28;;;;;;;9.27;3.63;;;20.80;70.20;;;-142.21;96.39;112049.66;5112886;28;20231;-69
2022/10/11 00:04:55;;;;;;;6.17;3.13;;;20.80;70.10;;;-142.21;96.50;112049.66;5111975;28;20208;-69
2022/10/11 00:07:23;;;;;;;5.63;3.23;;;20.80;70.20;;;-142.21;96.61;112049.66;5112591;28;20204;-68
2022/10/11 00:09:50;;;;;;;8.87;3.77;;;20.80;70.20;;;-142.21;96.51;112049.66;5111798;28;20234;-69
2022/10/11 00:12:17;;;;;;;6.83;3.70;;;20.80;70.10;;;-142.21;96.87;112049.66;5112788;28;20219;-69
2022/10/11 00:14:45;;;;;;;6.13;3.67;;;20.80;70.20;;;-142.21;96.78;112049.66;5112245;28;20563;-69
2022/10/11 00:17:13;;;;;;;7.27;3.30;;;20.80;70.40;;;-142.21;97.17;112049.66;5112549;28;20210;-69
2022/10/11 00:19:40;;;;;;;6.37;3.53;;;20.80;70.50;;;-142.21;97.20;112049.66;5112184;28;20207;-70
2022/10/11 00:22:07;;;;;;;9.43;3.60;;;20.80;70.50;;;-142.21;97.84;112049.66;5111966;28;20231;-70
2022/10/11 00:24:34;;;;;;;10.03;3.50;;;20.80;71.40;;;-142.21;97.55;112049.66;5111831;28;20206;-69
2022/10/11 00:27:01;;;;;;;7.93;3.43;;;20.80;71.30;;;-142.21;97.08;112049.66;5111900;28;20203;-70
2022/10/11 00:29:28;;;;;;;6.60;3.20;;;20.80;70.70;;;-142.21;97.12;112049.66;5112149;28;20272;-69
2022/10/11 00:31:57;;;;;;;4.77;3.30;;;20.70;70.60;;;-142.21;97.39;112049.66;5111581;28;20587;-70
2022/10/11 00:34:24;;;;;;;7.67;3.67;;;20.70;70.70;;;-142.21;97.33;112049.66;5112251;28;20295;-69
2022/10/11 00:36:51;;;;;;;7.10;3.53;;;20.70;70.70;;;-142.21;97.68;112049.66;5111549;28;20210;-70
2022/10/11 00:39:19;;;;;;;7.83;3.10;;;20.70;70.80;;;-142.21;97.68;112049.66;5111802;28;20203;-69
2022/10/11 00:41:46;;;;;;;7.03;3.80;;;20.60;70.80;;;-142.21;98.01;112049.66;5110822;28;20205;-69
2022/10/11 00:44:18;;;;;;;7.97;4.23;;;20.60;70.90;;;-142.21;97.68;112049.66;5111834;28;20280;-69
2022/10/11 00:46:51;;;;;;;6.53;3.80;;;20.60;71.00;;;-142.21;97.77;112049.66;5111765;28;20191;-69
2022/10/11 00:49:33;;;;;;;6.70;3.20;;;20.60;71.10;;;-142.21;98.19;112049.66;5111955;28;20192;-70
2022/10/11 00:52:06;;;;;;;8.47;3.77;;;20.50;71.30;;;-142.21;98.13;112049.66;5111460;28;20208;-69
2022/10/11 00:54:38;;;;;;;8.17;4.00;;;20.50;71.30;;;-142.21;98.09;112049.66;5111439;28;20199;-70
2022/10/11 00:57:12;;;;;;;7.80;3.50;;;20.40;71.20;;;-142.21;98.03;112049.66;5111169;28;20183;-68
2022/10/11 00:59:45;;;;;;;5.80;3.53;;;20.40;71.30;;;-142.21;98.16;112049.66;5112123;28;20183;-68
2022/10/11 01:02:14;;;;;;;7.87;3.90;;;20.40;71.40;;;-142.21;98.38;112049.66;5111771;28;20186;-70
2022/10/11 01:04:43;;;;;;;8.97;4.40;;;20.30;71.60;;;-142.21;99.00;112049.66;5112069;28;20211;-70
2022/10/11 01:07:13;;;;;;;6.63;3.83;;;20.30;71.60;;;-142.21;98.93;112049.66;5111191;28;20656;-70
2022/10/11 01:09:40;;;;;;;7.40;3.40;;;20.20;71.60;;;-142.21;99.94;112049.66;5111993;28;20208;-70
2022/10/11 01:12:17;;;;;;;9.27;3.97;;;20.10;72.70;;;-142.21;100.00;112049.66;5111233;28;20223;-70
2022/10/11 01:15:10;;;;;;;6.03;3.73;;;20.00;72.70;;;-142.21;100.00;112049.66;5112005;28;20190;-70
2022/10/11 01:17:52;;;;;;;6.57;3.40;;;19.90;72.70;;;-142.21;100.00;112049.66;5111457;28;20190;-70
2022/10/11 01:21:03;;;;;;;8.73;4.07;;;19.80;72.90;;;-142.21;100.00;112049.66;5111793;28;20194;-70
2022/10/11 01:24:24;;;;;;;5.50;3.23;;;19.80;73.30;;;-142.21;100.00;112049.66;5111192;28;20415;-70
2022/10/11 01:27:30;;;;;;;5.40;3.50;;;19.70;73.60;;;-142.21;100.00;112049.66;5110923;28;20191;-70
2022/10/11 01:30:17;;;;;;;6.73;3.53;;;19.70;73.60;;;-142.21;100.00;112049.66;5110673;28;20306;-70
2022/10/11 01:32:54;;;;;;;9.07;3.80;;;19.70;73.40;;;-142.21;100.00;112049.66;5111279;28;20226;-69
2022/10/11 01:35:28;;;;;;;6.20;3.37;;;19.60;73.40;;;-142.21;100.00;112049.66;5111857;28;20180;-70
2022/10/11 01:38:07;;;;;;;10.70;4.03;;;19.60;73.70;;;-142.21;100.00;112049.66;5110779;28;20192;-70
2022/10/11 01:40:41;;;;;;;6.00;3.73;;;19.60;73.80;;;-142.21;100.00;112049.66;5111775;28;20188;-70
2022/10/11 01:43:11;;;;;;;7.10;3.93;;;19.60;73.90;;;-142.21;100.00;112049.66;5110494;28;20257;-70
2022/10/11 01:45:40;;;;;;;7.23;3.23;;;19.60;74.00;;;-142.21;100.00;112049.66;5111239;28;20200;-70
2022/10/11 01:48:10;;;;;;;5.63;3.57;;;19.60;74.90;;;-142.21;100.00;112049.66;5110748;28;20204;-70
2022/10/11 01:50:43;;;;;;;7.77;3.33;;;19.60;74.10;;;-142.21;100.00;112049.66;5111212;28;20188;-70
2022/10/11 01:53:40;;;;;;;7.13;4.03;;;19.60;74.30;;;-142.21;100.00;112049.66;5112285;28;20613;-70
2022/10/11 01:56:28;;;;;;;9.83;4.03;;;19.60;74.60;;;-142.21;100.00;112049.66;5114846;28;20778;-70
2022/10/11 01:59:19;;;;;;;7.33;4.10;;;19.60;74.50;;;-142.21;100.00;112049.66;5114468;28;20253;-70
2022/10/11 02:02:05;;;;;;;7.80;4.07;;;19.60;74.50;;;-142.21;100.00;112049.66;5115414;28;20283;-70
2022/10/11 02:04:43;;;;;;;6.83;3.70;;;19.60;74.70;;;-142.21;100.00;112049.66;5114091;28;20192;-70
2022/10/11 02:07:21;;;;;;;6.57;3.77;;;19.50;74.60;;;-142.21;100.00;112049.66;5114157;28;20191;-69
2022/10/11 02:10:02;;;;;;;5.67;3.43;;;19.60;74.60;;;-142.21;100.00;112049.66;5114469;28;20195;-68
2022/10/11 02:12:38;;;;;;;6.73;3.53;;;19.50;74.80;;;-142.21;100.00;112049.66;5114504;28;20219;-70
2022/10/11 02:15:10;;;;;;;7.67;3.53;;;19.50;74.80;;;-142.21;100.00;112049.66;5114332;28;20188;-70
2022/10/11 02:17:44;;;;;;;8.03;3.80;;;19.60;74.90;;;-142.21;100.00;112049.66;5114838;28;20271;-69
2022/10/11 02:20:18;;;;;;;7.13;3.60;;;19.50;74.80;;;-142.21;100.00;112049.66;5114392;28;20194;-69
2022/10/11 02:22:49;;;;;;;6.17;3.27;;;19.50;75.00;;;-142.21;100.00;112049.66;5114797;28;20189;-68
2022/10/11 02:25:24;;;;;;;6.20;4.03;;;19.50;74.90;;;-142.21;100.00;112049.66;5114846;28;20184;-69
2022/10/11 02:27:57;;;;;;;7.53;4.20;;;19.60;75.10;;;-142.21;100.00;112049.66;5114048;28;20194;-68
2022/10/11 02:30:24;;;;;;;11.37;5.10;;;19.50;74.80;;;-142.21;100.00;112049.66;5114581;28;20453;-69
2022/10/11 02:32:56;;;;;;;9.27;4.80;;;19.60;75.40;;;-142.21;100.00;112049.66;5113761;28;20230;-69
2022/10/11 02:35:28;;;;;;;8.43;4.47;;;19.60;74.50;;;-142.21;100.00;112049.66;5114311;28;20196;-70
2022/10/11 02:38:07;;;;;;;5.77;4.53;;;19.60;74.30;;;-142.21;100.00;112049.66;5113791;28;20188;-69
2022/10/11 02:40:41;;;;;;;8.67;5.37;;;19.60;74.10;;;-142.21;100.00;112049.66;5114305;28;20735;-69
2022/10/11 02:43:17;;;;;;;7.27;5.50;;;19.70;74.00;;;-142.21;100.00;112049.66;5113313;28;20698;-69
2022/10/11 02:45:51;;;;;;;7.33;4.87;;;19.70;74.00;;;-142.21;100.00;112049.66;5114522;28;20184;-69
2022/10/11 02:48:20;;;;;;;8.00;4.93;;;19.70;73.80;;;-142.21;100.00;112049.66;5114081;28;20275;-69
2022/10/11 02:50:48;;;;;;;9.53;5.33;;;19.70;73.80;;;-142.21;100.00;112049.66;5114247;28;20444;-69
2022/10/11 02:53:15;;;;;;;9.87;5.00;;;19.70;73.70;;;-142.21;100.00;112049.66;5113745;28;20310;-69
2022/10/11 02:55:42;;;;;;;11.60;5.40;;;19.70;73.60;;;-142.21;100.00;112049.66;5114207;28;20564;-69
2022/10/11 02:58:09;;;;;;;10.20;6.40;;;19.70;73.40;;;-142.21;100.00;112049.66;5113365;28;20207;-69
2022/10/11 03:00:36;;;;;;;13.50;6.90;;;19.70;73.30;;;-142.21;99.98;112049.66;5113885;28;20207;-70
2022/10/11 03:03:03;;;;;;;11.43;6.03;;;19.70;73.10;;;-142.21;99.69;112049.66;5112734;28;20758;-69
2022/10/11 03:05:39;;;;;;;9.47;5.70;;;19.70;73.00;;;-142.21;99.84;112049.66;5112910;28;20204;-69
2022/10/11 03:08:06;;;;;;;13.13;6.50;;;19.70;73.00;;;-142.21;100.00;112049.66;5113391;28;20261;-68
2022/10/11 03:10:34;;;;;;;8.17;5.27;;;19.70;72.90;;;-142.21;100.00;112049.66;5113949;28;20226;-69
2022/10/11 03:13:01;;;;;;;10.93;6.30;;;19.70;73.10;;;-142.21;100.00;112049.66;5112766;28;20326;-70
2022/10/11 03:15:31;;;;;;;10.93;6.37;;;19.70;72.90;;;-142.21;99.61;112049.66;5113485;28;20211;-69
2022/10/11 03:17:58;;;;;;;12.97;7.60;;;19.60;72.80;;;-142.21;98.48;112049.66;5113063;28;20461;-69
2022/10/11 03:20:26;;;;;;;12.73;7.10;;;19.60;72.40;;;-142.21;98.25;112049.66;5113767;28;20211;-70
2022/10/11 03:22:54;;;;;;;12.67;7.03;;;19.60;72.20;;;-142.21;97.91;112049.66;5112767;28;20210;-69
2022/10/11 03:25:21;;;;;;;11.23;7.50;;;19.60;72.00;;;-142.21;97.80;112049.66;5113439;28;20208;-69
2022/10/11 03:27:49;;;;;;;10.67;7.13;;;19.60;71.70;;;-142.21;97.76;112049.66;5113168;28;20264;-70
2022/10/11 03:30:16;;;;;;;16.07;7.30;;;19.60;71.70;;;-142.21;97.53;112049.66;5112206;28;20230;-68
2022/10/11 03:32:44;;;;;;;14.47;8.37;;;19.60;71.70;;;-142.21;97.92;112049.66;5112996;28;20480;-68
2022/10/11 03:35:11;;;;;;;11.10;7.97;;;19.60;71.70;;;-142.21;97.85;112049.66;5112829;28;20204;-68
2022/10/11 03:37:38;;;;;;;11.27;7.90;;;19.60;71.60;;;-142.21;97.84;112049.66;5112984;28;20242;-69
2022/10/11 03:40:08;;;;;;;11.70;8.40;;;19.50;71.40;;;-142.21;97.66;112049.66;5112428;28;20214;-68
2022/10/11 03:42:36;;;;;;;10.87;8.57;;;19.50;71.50;;;-142.21;97.54;112049.66;5112682;28;20276;-69
2022/10/11 03:45:10;;;;;;;17.67;9.00;;;19.50;71.50;;;-142.21;97.46;112049.66;5112063;28;20671;-68
2022/10/11 03:47:39;;;;;;;14.00;9.40;;;19.50;71.50;;;-142.21;97.31;112049.66;5113151;28;20275;-68
2022/10/11 03:50:08;;;;;;;15.30;9.07;;;19.40;71.40;;;-142.21;97.41;112049.66;5112209;28;20725;-69
2022/10/11 03:52:36;;;;;;;16.33;9.50;;;19.40;71.30;;;-142.21;98.06;112049.66;5113048;28;20241;-69
2022/10/11 03:55:05;;;;;;;15.17;9.60;;;19.40;71.40;;;-142.21;97.95;112049.66;5112617;28;20429;-69
2022/10/11 03:57:33;;;;;;;17.50;9.63;;;19.40;71.50;;;-142.21;98.04;112049.66;5112635;28;20656;-69
2022/10/11 04:00:00;;;;;;;12.73;10.97;;;19.30;71.50;;;-142.21;98.48;112049.66;5111921;28;20205;-68
2022/10/11 04:02:27;;;;;;;16.37;10.10;;;19.30;71.50;;;-142.21;98.58;112049.66;5112797;28;20563;-68
2022/10/11 04:04:54;;;;;;;11.60;9.90;;;19.20;71.70;;;-142.21;98.55;112049.66;5112105;28;20214;-70
2022/10/11 04:07:22;;;;;;;16.40;10.83;;;19.20;71.70;;;-142.21;98.96;112049.66;5112782;28;20291;-69
2022/10/11 04:09:49;;;;;;;15.23;10.13;;;19.10;71.80;;;-142.21;98.76;112049.66;5112516;28;20292;-69
2022/10/11 04:12:16;;;;;;;15.43;10.80;;;19.10;71.90;;;-142.21;99.16;112049.66;5111950;28;20224;-70
2022/10/11 04:14:45;;;;;;;15.77;10.67;;;19.00;71.90;;;-142.21;98.97;112049.66;5112058;28;20460;-69
2022/10/11 04:17:12;;;;;;;15.27;10.73;;;19.10;72.00;;;-142.21;99.25;112049.66;5111787;28;20295;-69
2022/10/11 04:19:39;;;;;;;17.13;11.10;;;19.00;72.10;;;-142.21;99.18;112049.66;5112387;28;20532;-69
2022/10/11 04:22:07;;;;;;;15.13;10.70;;;19.00;72.10;;;-142.21;99.60;112049.66;5112129;28;20617;-69
2022/10/11 04:24:34;;;;;;;15.17;10.77;;;18.90;72.20;;;-142.21;99.24;112049.66;5112224;28;20839;-69
2022/10/11 04:27:01;;;;;;;15.27;10.53;;;18.90;72.20;;;-142.21;99.52;112049.66;5111698;28;20739;-69
2022/10/11 04:29:28;;;;;;;16.00;11.07;;;18.80;72.30;;;-142.21;99.47;112049.66;5111829;28;20450;-69
2022/10/11 04:32:00;;;;;;;15.57;11.30;;;18.80;72.30;;;-142.21;99.86;112049.66;5111530;28;20318;-69
2022/10/11 04:34:27;;;;;;;18.17;12.37;;;18.80;72.40;;;-142.21;99.99;112049.66;5112202;28;20194;-69
2022/10/11 04:36:54;;;;;;;17.77;12.00;;;18.70;72.40;;;-142.21;100.00;112049.66;5111997;28;20210;-69
2022/10/11 04:39:21;;;;;;;18.20;11.97;;;18.70;72.40;;;-142.21;100.00;112049.66;5111800;28;20688;-68
2022/10/11 04:41:48;;;;;;;14.70;12.07;;;18.70;72.60;;;-142.21;100.00;112049.66;5111939;28;20362;-70
2022/10/11 04:44:15;;;;;;;19.77;12.80;;;18.60;72.60;;;-142.21;100.00;112049.66;5110917;28;20200;-69
2022/10/11 04:46:42;;;;;;;15.20;12.00;;;18.60;72.70;;;-142.21;100.00;112049.66;5111851;28;20207;-69
2022/10/11 04:49:11;;;;;;;14.80;12.23;;;18.50;72.90;;;-142.21;100.00;112049.66;5111663;28;20203;-69
2022/10/11 04:51:38;;;;;;;14.90;12.50;;;18.50;73.20;;;-142.21;100.00;112049.66;5111990;28;20438;-68
2022/10/11 04:54:06;;;;;;;21.03;12.37;;;18.50;73.30;;;-142.21;100.00;112049.66;5111043;28;20450;-70
2022/10/11 04:56:33;;;;;;;16.20;11.47;;;18.40;73.40;;;-142.21;100.00;112049.66;5111835;28;20528;-68
2022/10/11 04:59:00;;;;;;;18.97;12.13;;;18.50;73.60;;;-142.21;100.00;112049.66;5110570;28;20211;-69
2022/10/11 05:01:27;;;;;;;17.93;13.20;;;18.40;73.70;;;-142.21;100.00;112049.66;5112125;28;20533;-69
2022/10/11 05:03:54;;;;;;;18.43;12.53;;;18.40;73.80;;;-142.21;100.00;112049.66;5112036;28;20469;-70
2022/10/11 05:06:23;;;;;;;16.80;13.77;;;18.50;74.00;;;-142.21;100.00;112049.66;5111068;28;20957;-70
2022/10/11 05:08:50;;;;;;;18.83;14.60;;;18.50;73.90;;;-142.21;100.00;112049.66;5111515;28;20487;-69
2022/10/11 05:11:18;;;;;;;19.17;14.77;;;18.50;74.00;;;-142.21;100.00;112049.66;5111213;28;21168;-69
2022/10/11 05:13:46;;;;;;;19.93;15.33;;;18.50;73.80;;;-142.21;100.00;112049.66;5110987;28;20227;-68
2022/10/11 05:16:16;;;;;;;19.03;14.00;;;18.50;73.80;;;-142.21;100.00;112049.66;5111349;28;20443;-68
2022/10/11 05:18:43;;;;;;;18.87;13.43;;;18.60;73.90;;;-142.21;100.00;112049.66;5112058;28;20434;-69
2022/10/11 05:21:18;;;;;;;16.83;13.27;;;18.60;73.80;;;-142.21;100.00;112049.66;5111098;28;20441;-67
2022/10/11 05:23:49;;;;;;;18.77;13.57;;;18.60;73.80;;;-142.21;100.00;112049.66;5111779;28;20187;-69
2022/10/11 05:26:17;;;;;;;17.80;13.43;;;18.60;73.60;;;-142.21;100.00;112049.66;5110980;28;20533;-69
2022/10/11 05:28:45;;;;;;;14.57;12.40;;;18.60;73.50;;;-142.21;100.00;112049.66;5113700;28;20223;-68
2022/10/11 05:31:13;;;;;;;16.87;12.30;;;18.60;73.40;;;-142.21;100.00;112049.66;5114892;28;20664;-69
2022/10/11 05:33:40;;;;;;;17.63;12.10;;;18.60;73.30;;;-142.21;100.00;112049.66;5115654;28;20485;-69
2022/10/11 05:36:08;;;;;;;16.87;11.70;;;18.60;73.30;;;-142.21;100.00;112049.66;5115151;28;20210;-69
2022/10/11 05:38:36;;;;;;;15.13;12.13;;;18.60;73.20;;;-142.21;100.00;112049.66;5114973;28;20437;-69
2022/10/11 05:41:07;;;;;;;15.17;12.73;;;18.60;73.10;;;-142.21;100.00;112049.66;5114760;28;20208;-70
2022/10/11 05:43:35;;;;;;;15.10;11.73;;;18.60;72.90;;;-142.21;100.00;112049.66;5115208;28;20232;-69
2022/10/11 05:46:02;;;;;;;15.13;11.53;;;18.60;73.70;;;-142.21;100.00;112049.66;5114538;28;20484;-70
2022/10/11 05:48:30;;;;;;;16.23;11.00;;;18.60;72.90;;;-142.21;100.00;112049.66;5115635;28;20207;-69
2022/10/11 05:51:01;;;;;;;13.43;10.33;;;18.60;72.80;;;-142.21;100.00;112049.66;5115530;28;20204;-69
2022/10/11 05:53:33;;;;;;;13.73;9.50;;;18.50;72.60;;;-142.21;99.69;112049.66;5115154;28;20215;-69
2022/10/11 05:56:00;;;;;;;14.60;10.47;;;18.50;72.50;;;-142.21;99.66;112049.66;5114646;28;20532;-68
2022/10/11 05:58:30;;;;;;;11.93;9.40;;;18.50;72.40;;;-142.21;99.88;112049.66;5114747;28;20208;-69
2022/10/11 06:00:57;;;;;;;14.50;9.00;;;18.50;72.30;;;-142.21;99.92;112049.66;5115322;28;20449;-68
2022/10/11 06:03:24;;;;;;;13.67;8.90;;;18.50;72.20;;;-142.21;99.11;112049.66;5114379;28;20490;-69
2022/10/11 06:05:51;;;;;;;10.50;8.57;;;18.50;72.00;;;-142.21;99.11;112049.66;5114798;28;20445;-69
2022/10/11 06:08:19;;;;;;;11.27;8.37;;;18.50;72.00;;;-142.21;98.96;112049.66;5114692;28;20448;-68
2022/10/11 06:10:46;;;;;;;14.37;8.40;;;18.50;72.00;;;-142.21;98.54;112049.66;5114871;28;20451;-68
2022/10/11 06:13:13;;;;;;;12.37;7.90;;;18.50;71.70;;;-142.21;97.77;112049.66;5114395;28;20489;-69
2022/10/11 06:15:42;;;;;;;12.50;8.27;;;18.50;71.30;;;-142.21;97.75;112049.66;5114765;28;20449;-69
2022/10/11 06:18:09;;;;;;;11.50;7.77;;;18.50;71.10;;;-142.21;97.81;112049.66;5114070;28;21031;-70
2022/10/11 06:20:37;;;;;;;8.67;7.03;;;18.50;72.00;;;-142.21;97.45;112049.66;5114630;28;20210;-69
2022/10/11 06:23:04;;;;;;;10.07;6.47;;;18.50;71.10;;;-142.21;96.97;112049.66;5114092;28;20204;-68
2022/10/11 06:25:31;;;;;;;9.60;6.97;;;18.50;70.60;;;-142.21;96.73;112049.66;5114479;28;20286;-69
2022/10/11 06:27:58;;;;;;;7.90;5.97;;;18.40;70.40;;;-142.21;95.46;112049.66;5114492;28;20246;-70
2022/10/11 06:30:25;;;;;;;10.37;5.83;;;18.40;69.80;;;-142.21;95.26;112049.66;5114193;28;20560;-69
2022/10/11 06:32:54;;;;;;;6.40;4.83;;;18.50;69.70;;;-142.21;94.46;112049.66;5114137;28;20576;-69
2022/10/11 06:35:21;;;;;;;9.20;4.80;;;18.40;69.10;;;-142.21;93.46;112049.66;5113748;28;20442;-68
2022/10/11 06:37:48;;;;;;;6.03;3.93;;;18.40;68.90;;;-142.21;93.11;112049.66;5114396;28;20494;-68
2022/10/11 06:40:16;;;;;;;15.33;4.40;;;18.40;68.40;;;-142.21;92.70;112049.66;5112047;28;20204;-69
2022/10/11 06:42:47;;;;;;;11.50;3.80;;;18.40;68.30;;;-142.21;92.18;112049.66;5114160;28;20569;-68
2022/10/11 06:45:15;;;;;;;6.97;3.50;;;18.40;68.00;;;-142.21;91.53;112049.66;5113601;28;20953;-69
2022/10/11 06:47:43;;;;;;;7.00;3.80;;;18.40;67.70;;;-142.21;90.97;112049.66;5114326;28;20203;-69
2022/10/11 06:50:12;;;;;;;8.67;3.40;;;18.40;67.20;;;-142.21;91.16;112049.66;5113608;28;20306;-68
2022/10/11 06:52:39;;;;;;;6.03;3.00;;;18.40;67.20;;;-142.21;90.75;112049.66;5113981;28;20568;-68
2022/10/11 06:55:08;;;;;;;6.37;3.60;;;18.40;67.00;;;-142.21;90.91;112049.66;5113133;28;20207;-68
2022/10/11 06:57:35;;;;;;;7.40;3.00;;;18.40;67.00;;;-142.21;88.89;112049.66;5114278;28;20631;-69
2022/10/11 07:00:03;;;;;;;9.53;2.50;;;18.40;66.20;;;-142.21;87.33;112049.66;5113769;28;20452;-69
2022/10/11 07:02:32;;;;;;;12.00;2.93;;;18.40;65.50;;;-142.21;86.55;112049.66;5114124;28;20860;-69
2022/10/11 07:04:59;;;;;;;5.87;3.00;;;18.40;64.90;;;-142.21;86.66;112049.66;5113533;28;20207;-69
2022/10/11 07:07:30;;;;;;;7.93;2.73;;;18.40;65.00;;;-142.21;85.17;112049.66;5113341;28;20241;-68
2022/10/11 07:09:57;;;;;;;5.57;2.73;;;18.40;64.20;;;-142.21;84.49;112049.66;5113394;28;20479;-69
2022/10/11 07:12:25;;;;;;;5.97;2.47;;;18.40;64.00;;;-142.21;83.77;112049.66;5113089;28;20453;-69
2022/10/11 07:14:52;;;;;;;8.00;2.60;;;18.50;63.50;;;-142.21;84.09;112049.66;5113803;28;20567;-69
2022/10/11 07:17:19;;;;;;;6.67;2.57;;;18.50;63.30;;;-142.21;83.06;112049.66;5112996;28;20668;-69
2022/10/11 07:19:47;;;;;;;7.53;2.70;;;18.60;63.90;;;-142.21;82.76;112049.66;5113578;28;20231;-68
2022/10/11 07:22:15;;;;;;;7.73;2.87;;;18.50;62.70;;;-142.21;82.28;112049.66;5112780;28;20442;-68
2022/10/11 07:24:44;;;;;;;16.60;2.73;;;18.50;62.70;;;-142.21;81.92;112049.66;5113749;28;20211;-69
2022/10/11 07:27:12;;;;;;;5.83;2.43;;;18.50;62.30;;;-142.21;82.00;112049.66;5112599;28;20199;-69
2022/10/11 07:29:39;;;;;;;6.00;2.73;;;18.50;62.20;;;-142.21;81.99;112049.66;5113559;28;20828;-68
2022/10/11 07:32:07;;;;;;;6.77;2.70;;;18.50;62.20;;;-142.21;81.38;112049.66;5113035;28;20231;-68
2022/10/11 07:34:35;;;;;;;7.50;2.97;;;18.50;62.00;;;-142.21;81.37;112049.66;5113050;28;20231;-68
2022/10/11 07:37:03;;;;;;;10.20;2.70;;;18.50;61.80;;;-142.21;81.44;112049.66;5112848;28;20453;-69
2022/10/11 07:39:31;;;;;;;5.13;2.50;;;18.50;61.80;;;-142.21;81.99;112049.66;5113084;28;20449;-69
2022/10/11 07:42:00;;;;;;;5.43;2.50;;;18.50;61.90;;;-142.21;81.84;112049.66;5112802;28;20453;-68
2022/10/11 07:44:27;;;;;;;8.27;2.73;;;18.60;61.90;;;-142.21;81.33;112049.66;5112868;28;20249;-68
2022/10/11 07:46:55;;;;;;;5.23;3.03;;;18.50;61.70;;;-142.21;81.25;112049.66;5113219;28;20782;-68
2022/10/11 07:49:23;;;;;;;6.73;2.90;;;18.50;61.60;;;-142.21;80.42;112049.66;5112146;28;20448;-69
2022/10/11 07:51:50;;;;;;;8.00;2.47;;;18.50;61.20;;;-142.21;80.78;112049.66;5112249;28;20203;-69
2022/10/11 07:54:18;;;;;;;8.70;2.77;;;18.50;61.10;;;-142.21;80.23;112049.66;5091519;28;20573;-69
2022/10/11 07:56:45;;;;;;;4.77;2.87;;;18.40;60.90;;;-142.21;81.18;112049.66;5092663;28;20664;-69
2022/10/11 07:59:14;;;;;;;7.67;2.53;;;18.40;61.20;;;-142.21;81.75;112049.66;5092117;28;20446;-69
2022/10/11 08:01:45;;;;;;;4.73;2.60;;;18.40;61.60;;;-142.21;81.86;112049.66;5092259;28;20204;-69
2022/10/11 08:04:13;;;;;;;5.73;2.63;;;18.40;61.60;;;-142.21;80.88;112049.66;5091724;28;20836;-69
2022/10/11 08:06:41;;;;;;;8.40;2.70;;;18.40;61.30;;;-142.21;79.83;112049.66;5091941;28;20476;-69
2022/10/11 08:09:09;;;;;;;9.17;2.87;;;18.40;60.60;;;-142.21;79.17;112049.66;5091412;28;20721;-70
2022/10/11 08:11:37;;;;;;;5.60;2.83;;;18.40;60.40;;;-142.21;79.79;112049.66;5092225;28;20205;-69
2022/10/11 08:14:10;;;;;;;4.87;2.40;;;18.40;60.40;;;-142.21;79.56;112049.66;5091986;28;20225;-68
2022/10/11 08:16:39;;;;;;;8.73;3.13;;;18.40;60.40;;;-142.21;79.56;112049.66;5092321;28;20538;-69
2022/10/11 08:19:07;;;;;;;5.87;3.00;;;18.50;60.70;;;-142.21;78.89;112049.66;5092060;28;20231;-69
2022/10/11 08:21:37;;;;;;;7.07;2.87;;;18.50;60.40;;;-142.21;79.16;112049.66;5091825;28;20231;-68
2022/10/11 08:24:06;;;;;;;9.33;2.90;;;18.50;60.40;;;-142.21;79.72;112049.66;5091826;28;20239;-69
2022/10/11 08:26:35;;;;;;;6.50;2.67;;;18.50;60.50;;;-142.21;79.27;112049.66;5091710;28;20439;-68
2022/10/11 08:29:03;;;;;;;10.00;3.07;;;18.50;60.40;;;-142.21;79.37;112049.66;5092124;28;20470;-68
2022/10/11 08:31:35;;;;;;;7.87;3.03;;;18.50;60.40;;;-142.21;79.70;112049.66;5091062;28;20453;-68
2022/10/11 08:34:04;;;;;;;8.23;3.40;;;18.60;60.60;;;-142.21;79.98;112049.66;5091540;28;20478;-70
2022/10/11 08:36:33;;;;;;;6.10;2.80;;;18.60;60.60;;;-142.21;79.76;112049.66;5091140;28;20529;-68
2022/10/11 08:39:03;;;;;;;8.43;2.70;;;18.60;60.50;;;-142.21;79.70;112049.66;5091942;28;20643;-69
2022/10/11 08:41:41;;;;;;;7.03;2.73;;;18.60;61.40;;;-142.21;78.92;112049.66;5091070;28;20196;-68
2022/10/11 08:45:00;;;;;;;9.57;3.20;;;18.70;61.00;;;-142.21;78.50;112049.66;5090985;28;20474;-68
2022/10/11 08:47:34;;;;;;;9.17;3.47;;;18.70;59.90;;;-142.21;78.70;112049.66;5091228;28;20783;-68
2022/10/11 08:50:17;;;;;;;11.33;3.00;;;18.70;60.00;;;-142.21;78.22;112049.66;5090820;28;20969;-69
2022/10/11 08:52:56;;;;;;;7.03;2.60;;;18.70;59.80;;;-142.21;78.46;112049.66;5099086;28;20192;-70
2022/10/11 08:55:44;;;;;;;5.53;2.77;;;18.70;59.90;;;-142.21;78.22;112049.66;5111598;28;20192;-69
2022/10/11 08:58:23;;;;;;;7.73;2.83;;;18.70;59.60;;;-142.21;78.53;112049.66;5111373;28;20582;-69
2022/10/11 09:00:57;;;;;;;7.07;2.93;;;18.70;59.90;;;-142.21;77.69;112049.66;5111985;28;20440;-70
2022/10/11 09:03:39;;;;;;;7.10;3.10;;;18.70;59.70;;;-142.21;77.37;112049.66;5110412;28;20886;-69
2022/10/11 09:06:34;;;;;;;12.00;3.23;;;18.80;59.60;;;-142.21;77.02;112049.66;5109937;28;20452;-69
2022/10/11 09:09:42;;;;;;;9.00;3.07;;;18.80;59.20;;;-142.21;77.31;112049.66;5111637;28;20430;-69
2022/10/11 09:12:36;;;;;;;10.20;3.37;;;18.90;59.60;;;-142.21;75.74;112049.66;5111482;28;20644;-70
2022/10/11 09:15:42;;;;;;;10.23;3.30;;;19.00;59.00;;;-142.21;74.82;112049.66;5111655;28;20299;-70
2022/10/11 09:18:44;;;;;;;6.90;3.03;;;19.10;59.30;;;-142.21;75.11;112049.66;5110851;28;20618;-69
2022/10/11 09:21:44;;;;;;;5.40;2.73;;;19.20;58.80;;;-142.21;74.85;112049.66;5111255;28;20184;-70
2022/10/11 09:25:02;;;;;;;11.40;3.57;;;19.30;58.90;;;-142.21;75.82;112049.66;5111290;28;20281;-70
2022/10/11 09:27:36;;;;;;;8.17;3.30;;;19.40;59.50;;;-142.21;74.88;112049.66;5110814;28;20382;-68
2022/10/11 09:30:11;;;;;;;6.70;3.20;;;19.40;58.60;;;-142.21;75.39;112049.66;5110817;28;20223;-69
2022/10/11 09:33:12;;;;;;;10.00;3.83;;;19.50;59.00;;;-142.21;74.46;112049.66;5111627;28;20256;-69
2022/10/11 09:36:24;;;;;;;8.17;2.97;;;19.60;59.20;;;-142.21;73.30;112049.66;5110624;28;20207;-69
2022/10/11 09:39:50;;;;;;;7.23;3.57;;;19.80;58.50;;;-142.21;73.48;112049.66;5044513;28;20212;-68
